createdAt,value
2018-01-23T00:00:19.376Z,1012.2
2018-01-23T00:01:20.898Z,1012.2
2018-01-23T00:02:22.299Z,1012.2
2018-01-23T00:03:23.780Z,1012.2
2018-01-23T00:04:25.180Z,1012.2
2018-01-23T00:05:26.659Z,1012.2
2018-01-23T00:06:28.062Z,1012.2
2018-01-23T00:07:29.456Z,1012.2
2018-01-23T00:08:30.983Z,1012.3
2018-01-23T00:09:32.382Z,1012.3
2018-01-23T00:10:33.784Z,1012.2
2018-01-23T00:11:35.302Z,1012.3
2018-01-23T00:12:36.703Z,1012.3
2018-01-23T00:13:38.182Z,1012.3
2018-01-23T00:14:39.579Z,1012.3
2018-01-23T00:15:40.981Z,1012.4
2018-01-23T00:16:42.503Z,1012.3
2018-01-23T00:17:43.913Z,1012.3
2018-01-23T00:18:45.304Z,1012.4
2018-01-23T00:19:46.827Z,1012.4
2018-01-23T00:20:48.228Z,1012.3
2018-01-23T00:21:49.625Z,1012.4
2018-01-23T00:22:51.150Z,1012.3
2018-01-23T00:23:52.545Z,1012.3
2018-01-23T00:24:53.949Z,1012.4
2018-01-23T00:25:55.467Z,1012.4
2018-01-23T00:26:56.870Z,1012.4
2018-01-23T00:27:58.270Z,1012.5
2018-01-23T00:28:59.806Z,1012.4
2018-01-23T00:30:01.203Z,1012.5
2018-01-23T00:31:02.603Z,1012.5
2018-01-23T00:32:04.112Z,1012.5
2018-01-23T00:33:05.509Z,1012.5
2018-01-23T00:34:06.993Z,1012.5
2018-01-23T00:35:08.393Z,1012.5
2018-01-23T00:36:09.875Z,1012.5
2018-01-23T00:37:11.275Z,1012.4
2018-01-23T00:38:12.754Z,1012.5
2018-01-23T00:39:14.155Z,1012.5
2018-01-23T00:40:15.634Z,1012.4
2018-01-23T00:41:17.039Z,1012.5
2018-01-23T00:42:18.515Z,1012.5
2018-01-23T00:43:19.916Z,1012.5
2018-01-23T00:44:21.398Z,1012.5
2018-01-23T00:45:22.797Z,1012.4
2018-01-23T00:46:24.275Z,1012.5
2018-01-23T00:47:25.677Z,1012.5
2018-01-23T00:48:27.081Z,1012.5
2018-01-23T00:49:28.598Z,1012.5
2018-01-23T00:50:30.002Z,1012.5
2018-01-23T00:51:31.402Z,1012.5
2018-01-23T00:52:32.917Z,1012.5
2018-01-23T00:53:34.320Z,1012.5
2018-01-23T00:54:35.722Z,1012.5
2018-01-23T00:55:37.239Z,1012.5
2018-01-23T00:56:38.640Z,1012.5
2018-01-23T00:57:40.039Z,1012.5
2018-01-23T00:58:41.562Z,1012.4
2018-01-23T00:59:42.962Z,1012.5
2018-01-23T01:00:44.361Z,1012.5
2018-01-23T01:01:45.881Z,1012.5
2018-01-23T01:02:47.283Z,1012.5
2018-01-23T01:03:48.682Z,1012.5
2018-01-23T01:04:50.202Z,1012.5
2018-01-23T01:05:51.606Z,1012.5
2018-01-23T01:06:53.006Z,1012.6
2018-01-23T01:07:54.524Z,1012.6
2018-01-23T01:08:55.926Z,1012.6
2018-01-23T01:09:57.404Z,1012.6
2018-01-23T01:10:58.806Z,1012.6
2018-01-23T01:12:00.285Z,1012.7
2018-01-23T01:13:01.689Z,1012.7
2018-01-23T01:14:03.166Z,1012.6
2018-01-23T01:15:04.569Z,1012.7
2018-01-23T01:16:06.047Z,1012.7
2018-01-23T01:17:07.451Z,1012.7
2018-01-23T01:18:08.849Z,1012.8
2018-01-23T01:19:10.367Z,1012.7
2018-01-23T01:20:11.773Z,1012.7
2018-01-23T01:21:13.169Z,1012.8
2018-01-23T01:22:14.689Z,1012.7
2018-01-23T01:23:16.093Z,1012.7
2018-01-23T01:24:17.494Z,1012.8
2018-01-23T01:25:19.011Z,1012.7
2018-01-23T01:26:20.411Z,1012.8
2018-01-23T01:27:21.812Z,1012.8
2018-01-23T01:28:23.333Z,1012.8
2018-01-23T01:29:24.742Z,1012.8
2018-01-23T01:30:26.140Z,1012.8
2018-01-23T01:31:27.653Z,1012.8
2018-01-23T01:32:29.050Z,1012.9
2018-01-23T01:33:30.450Z,1012.8
2018-01-23T01:34:31.974Z,1012.8
2018-01-23T01:35:33.372Z,1012.9
2018-01-23T01:36:34.774Z,1012.9
2018-01-23T01:37:36.294Z,1012.9
2018-01-23T01:38:37.696Z,1013.0
2018-01-23T01:39:39.176Z,1013.0
2018-01-23T01:40:40.579Z,1013.0
2018-01-23T01:41:42.057Z,1013.0
2018-01-23T01:42:43.458Z,1013.0
2018-01-23T01:43:44.938Z,1013.1
2018-01-23T01:44:46.349Z,1013.0
2018-01-23T01:45:47.817Z,1013.0
2018-01-23T01:46:49.218Z,1013.1
2018-01-23T01:47:50.620Z,1013.1
2018-01-23T01:48:52.140Z,1013.0
2018-01-23T01:49:53.538Z,1013.1
2018-01-23T01:50:54.939Z,1013.0
2018-01-23T01:51:56.461Z,1013.1
2018-01-23T01:52:57.862Z,1013.1
2018-01-23T01:53:59.341Z,1013.1
2018-01-23T01:55:00.740Z,1013.1
2018-01-23T01:56:02.222Z,1013.1
2018-01-23T01:57:03.623Z,1013.1
2018-01-23T01:58:05.025Z,1013.1
2018-01-23T01:59:06.543Z,1013.1
2018-01-23T02:00:07.944Z,1013.2
2018-01-23T02:01:09.341Z,1013.2
2018-01-23T02:02:10.864Z,1013.1
2018-01-23T02:03:12.263Z,1013.2
2018-01-23T02:04:13.664Z,1013.2
2018-01-23T02:05:15.187Z,1013.3
2018-01-23T02:06:16.586Z,1013.2
2018-01-23T02:07:17.989Z,1013.3
2018-01-23T02:08:19.507Z,1013.2
2018-01-23T02:09:20.906Z,1013.2
2018-01-23T02:10:22.307Z,1013.2
2018-01-23T02:11:23.827Z,1013.2
2018-01-23T02:12:25.228Z,1013.3
2018-01-23T02:13:26.630Z,1013.3
2018-01-23T02:14:28.148Z,1013.2
2018-01-23T02:15:29.547Z,1013.3
2018-01-23T02:16:30.951Z,1013.2
2018-01-23T02:17:32.470Z,1013.3
2018-01-23T02:18:33.870Z,1013.3
2018-01-23T02:19:35.272Z,1013.3
2018-01-23T02:20:36.792Z,1013.3
2018-01-23T02:21:38.196Z,1013.3
2018-01-23T02:22:39.595Z,1013.4
2018-01-23T02:23:41.113Z,1013.4
2018-01-23T02:24:42.514Z,1013.4
2018-01-23T02:25:43.911Z,1013.4
2018-01-23T02:26:45.434Z,1013.4
2018-01-23T02:27:46.835Z,1013.4
2018-01-23T02:28:48.239Z,1013.5
2018-01-23T02:29:49.735Z,1013.4
2018-01-23T02:30:51.134Z,1013.4
2018-01-23T02:31:52.534Z,1013.5
2018-01-23T02:32:54.076Z,1013.5
2018-01-23T02:33:55.487Z,1013.5
2018-01-23T02:34:56.956Z,1013.5
2018-01-23T02:35:58.360Z,1013.5
2018-01-23T02:36:59.839Z,1013.4
2018-01-23T02:38:01.238Z,1013.5
2018-01-23T02:39:02.639Z,1013.5
2018-01-23T02:40:04.156Z,1013.4
2018-01-23T02:41:05.556Z,1013.5
2018-01-23T02:42:06.960Z,1013.5
2018-01-23T02:43:08.480Z,1013.5
2018-01-23T02:44:09.879Z,1013.5
2018-01-23T02:45:11.280Z,1013.5
2018-01-23T02:46:12.801Z,1013.5
2018-01-23T02:47:14.200Z,1013.5
2018-01-23T02:48:15.603Z,1013.5
2018-01-23T02:49:17.123Z,1013.5
2018-01-23T02:50:18.525Z,1013.5
2018-01-23T02:51:19.922Z,1013.5
2018-01-23T02:52:21.441Z,1013.5
2018-01-23T02:53:22.845Z,1013.5
2018-01-23T02:54:24.246Z,1013.6
2018-01-23T02:55:25.765Z,1013.6
2018-01-23T02:56:27.166Z,1013.6
2018-01-23T02:57:28.569Z,1013.6
2018-01-23T02:58:30.086Z,1013.6
2018-01-23T02:59:31.485Z,1013.7
2018-01-23T03:00:32.888Z,1013.6
2018-01-23T03:01:34.406Z,1013.7
2018-01-23T03:02:35.813Z,1013.6
2018-01-23T03:03:37.215Z,1013.7
2018-01-23T03:04:38.729Z,1013.6
2018-01-23T03:05:40.130Z,1013.6
2018-01-23T03:06:41.530Z,1013.7
2018-01-23T03:07:43.050Z,1013.7
2018-01-23T03:08:44.450Z,1013.8
2018-01-23T03:09:45.851Z,1013.8
2018-01-23T03:10:47.368Z,1013.8
2018-01-23T03:11:48.772Z,1013.8
2018-01-23T03:12:50.173Z,1013.8
2018-01-23T03:13:51.691Z,1013.8
2018-01-23T03:14:53.100Z,1013.8
2018-01-23T03:15:54.570Z,1013.8
2018-01-23T03:16:55.976Z,1013.9
2018-01-23T03:17:57.374Z,1013.9
2018-01-23T03:18:58.895Z,1013.9
2018-01-23T03:20:00.293Z,1014.0
2018-01-23T03:21:01.692Z,1013.9
2018-01-23T03:22:03.214Z,1014.0
2018-01-23T03:23:04.616Z,1014.0
2018-01-23T03:24:06.016Z,1014.0
2018-01-23T03:25:07.535Z,1013.9
2018-01-23T03:26:08.939Z,1014.0
2018-01-23T03:27:10.337Z,1014.0
2018-01-23T03:28:11.859Z,1014.0
2018-01-23T03:29:13.258Z,1014.0
2018-01-23T03:30:14.739Z,1014.0
2018-01-23T03:31:16.139Z,1014.0
2018-01-23T03:32:17.620Z,1014.0
2018-01-23T03:33:19.020Z,1014.0
2018-01-23T03:34:20.419Z,1014.1
2018-01-23T03:35:21.940Z,1014.1
2018-01-23T03:36:23.340Z,1014.1
2018-01-23T03:37:24.741Z,1014.0
2018-01-23T03:38:26.260Z,1014.1
2018-01-23T03:39:27.666Z,1014.1
2018-01-23T03:40:29.067Z,1014.1
2018-01-23T03:41:30.581Z,1014.1
2018-01-23T03:42:31.984Z,1014.2
2018-01-23T03:43:33.386Z,1014.1
2018-01-23T03:44:34.911Z,1014.1
2018-01-23T03:45:36.306Z,1014.1
2018-01-23T03:46:37.787Z,1014.1
2018-01-23T03:47:39.182Z,1014.1
2018-01-23T03:48:40.666Z,1014.2
2018-01-23T03:49:42.064Z,1014.2
2018-01-23T03:50:43.466Z,1014.1
2018-01-23T03:51:44.989Z,1014.2
2018-01-23T03:52:46.390Z,1014.2
2018-01-23T03:53:47.791Z,1014.1
2018-01-23T03:54:49.310Z,1014.2
2018-01-23T03:55:50.711Z,1014.2
2018-01-23T03:56:52.292Z,1014.1
2018-01-23T03:57:53.694Z,1014.2
2018-01-23T03:58:55.380Z,1014.2
2018-01-23T03:59:56.778Z,1014.2
2018-01-23T04:00:58.462Z,1014.2
2018-01-23T04:01:59.866Z,1014.2
2018-01-23T04:03:01.549Z,1014.2
2018-01-23T04:04:02.947Z,1014.2
2018-01-23T04:05:04.345Z,1014.2
2018-01-23T04:06:05.872Z,1014.3
2018-01-23T04:07:07.272Z,1014.4
2018-01-23T04:08:14.351Z,1014.3
2018-01-23T04:09:15.927Z,1014.3
2018-01-23T04:10:17.325Z,1014.3
2018-01-23T04:11:18.725Z,1014.3
2018-01-23T04:12:20.245Z,1014.3
2018-01-23T04:13:21.647Z,1014.3
2018-01-23T04:14:23.079Z,1014.4
2018-01-23T04:15:24.568Z,1014.4
2018-01-23T04:16:25.970Z,1014.3
2018-01-23T04:17:27.371Z,1014.4
2018-01-23T04:18:29.093Z,1014.4
2018-01-23T04:19:30.494Z,1014.4
2018-01-23T04:20:31.894Z,1014.5
2018-01-23T04:21:33.415Z,1014.5
2018-01-23T04:22:34.818Z,1014.4
2018-01-23T04:23:36.218Z,1014.4
2018-01-23T04:24:37.940Z,1014.4
2018-01-23T04:25:39.337Z,1014.4
2018-01-23T04:26:41.025Z,1014.4
2018-01-23T04:27:42.440Z,1014.4
2018-01-23T04:28:44.111Z,1014.4
2018-01-23T04:29:45.511Z,1014.3
2018-01-23T04:30:47.203Z,1014.5
2018-01-23T04:31:48.605Z,1014.4
2018-01-23T04:32:50.282Z,1014.5
2018-01-23T04:33:51.681Z,1014.4
2018-01-23T04:34:53.365Z,1014.5
2018-01-23T04:35:54.769Z,1014.4
2018-01-23T04:36:56.453Z,1014.4
2018-01-23T04:37:57.856Z,1014.5
2018-01-23T04:38:59.550Z,1014.5
2018-01-23T04:40:00.952Z,1014.5
2018-01-23T04:41:02.351Z,1014.5
2018-01-23T04:42:04.066Z,1014.5
2018-01-23T04:43:05.466Z,1014.5
2018-01-23T04:44:06.867Z,1014.5
2018-01-23T04:45:08.267Z,1014.5
2018-01-23T04:46:09.825Z,1014.5
2018-01-23T04:47:11.224Z,1014.5
2018-01-23T04:48:12.912Z,1014.5
2018-01-23T04:49:14.313Z,1014.6
2018-01-23T04:50:15.996Z,1014.6
2018-01-23T04:51:17.397Z,1014.6
2018-01-23T04:52:19.088Z,1014.6
2018-01-23T04:53:20.489Z,1014.5
2018-01-23T04:54:22.170Z,1014.6
2018-01-23T04:55:23.569Z,1014.6
2018-01-23T04:56:25.256Z,1014.6
2018-01-23T04:57:26.655Z,1014.6
2018-01-23T04:58:28.341Z,1014.6
2018-01-23T04:59:29.745Z,1014.5
2018-01-23T05:00:31.142Z,1014.6
2018-01-23T05:01:32.662Z,1014.7
2018-01-23T05:02:34.063Z,1014.6
2018-01-23T05:03:35.468Z,1014.6
2018-01-23T05:04:36.985Z,1014.6
2018-01-23T05:05:38.387Z,1014.6
2018-01-23T05:06:40.073Z,1014.7
2018-01-23T05:07:41.469Z,1014.7
2018-01-23T05:08:43.157Z,1014.6
2018-01-23T05:09:44.557Z,1014.6
2018-01-23T05:10:46.243Z,1014.6
2018-01-23T05:11:47.644Z,1014.6
2018-01-23T05:12:49.332Z,1014.7
2018-01-23T05:13:50.734Z,1014.6
2018-01-23T05:14:52.135Z,1014.6
2018-01-23T05:15:53.658Z,1014.7
2018-01-23T05:16:55.065Z,1014.6
2018-01-23T05:17:56.456Z,1014.6
2018-01-23T05:18:57.990Z,1014.7
2018-01-23T05:19:59.411Z,1014.7
2018-01-23T05:21:00.820Z,1014.7
2018-01-23T05:22:02.498Z,1014.7
2018-01-23T05:23:03.914Z,1014.7
2018-01-23T05:24:05.580Z,1014.8
2018-01-23T05:25:07.063Z,1014.8
2018-01-23T05:26:08.478Z,1014.8
2018-01-23T05:27:10.107Z,1014.8
2018-01-23T05:28:11.513Z,1014.8
2018-01-23T05:29:12.914Z,1014.9
2018-01-23T05:30:14.428Z,1014.8
2018-01-23T05:31:15.827Z,1014.9
2018-01-23T05:32:17.229Z,1014.8
2018-01-23T05:33:18.751Z,1014.9
2018-01-23T05:34:20.148Z,1014.9
2018-01-23T05:35:21.548Z,1014.9
2018-01-23T05:36:23.071Z,1014.9
2018-01-23T05:37:24.468Z,1014.9
2018-01-23T05:38:25.864Z,1014.9
2018-01-23T05:39:27.393Z,1014.9
2018-01-23T05:40:28.787Z,1015.0
2018-01-23T05:41:30.187Z,1014.9
2018-01-23T05:42:31.704Z,1015.0
2018-01-23T05:43:33.105Z,1015.0
2018-01-23T05:44:34.795Z,1015.0
2018-01-23T05:45:36.193Z,1014.9
2018-01-23T05:46:37.594Z,1014.9
2018-01-23T05:47:39.025Z,1014.9
2018-01-23T05:48:40.426Z,1014.9
2018-01-23T05:49:41.826Z,1015.0
2018-01-23T05:50:43.437Z,1014.9
2018-01-23T05:51:44.835Z,1014.9
2018-01-23T05:52:46.235Z,1015.0
2018-01-23T05:53:47.763Z,1015.0
2018-01-23T05:54:49.163Z,1014.9
2018-01-23T05:55:50.618Z,1015.0
2018-01-23T05:56:52.079Z,1015.0
2018-01-23T05:57:53.476Z,1015.0
2018-01-23T05:58:54.874Z,1015.1
2018-01-23T05:59:56.401Z,1015.0
2018-01-23T06:00:57.801Z,1015.1
2018-01-23T06:01:59.207Z,1015.1
2018-01-23T06:03:00.722Z,1015.0
2018-01-23T06:04:02.122Z,1015.1
2018-01-23T06:05:03.523Z,1015.1
2018-01-23T06:06:05.043Z,1015.1
2018-01-23T06:07:06.442Z,1015.1
2018-01-23T06:08:07.844Z,1015.1
2018-01-23T06:09:09.759Z,1015.1
2018-01-23T06:10:11.161Z,1015.1
2018-01-23T06:11:12.570Z,1015.2
2018-01-23T06:12:14.099Z,1015.2
2018-01-23T06:13:15.492Z,1015.2
2018-01-23T06:14:16.892Z,1015.2
2018-01-23T06:15:18.417Z,1015.2
2018-01-23T06:16:19.816Z,1015.2
2018-01-23T06:17:21.417Z,1015.2
2018-01-23T06:18:22.821Z,1015.2
2018-01-23T06:19:24.296Z,1015.2
2018-01-23T06:20:25.695Z,1015.3
2018-01-23T06:21:27.105Z,1015.2
2018-01-23T06:22:28.618Z,1015.2
2018-01-23T06:23:30.023Z,1015.3
2018-01-23T06:24:31.424Z,1015.3
2018-01-23T06:25:33.225Z,1015.3
2018-01-23T06:26:34.634Z,1015.3
2018-01-23T06:27:36.230Z,1015.3
2018-01-23T06:28:37.631Z,1015.4
2018-01-23T06:29:39.111Z,1015.4
2018-01-23T06:30:40.513Z,1015.4
2018-01-23T06:31:41.992Z,1015.4
2018-01-23T06:32:43.397Z,1015.4
2018-01-23T06:33:44.910Z,1015.4
2018-01-23T06:34:46.301Z,1015.4
2018-01-23T06:35:47.755Z,1015.4
2018-01-23T06:36:49.153Z,1015.4
2018-01-23T06:37:50.636Z,1015.5
2018-01-23T06:38:52.039Z,1015.4
2018-01-23T06:39:53.516Z,1015.5
2018-01-23T06:40:54.915Z,1015.5
2018-01-23T06:41:56.399Z,1015.5
2018-01-23T06:42:57.798Z,1015.4
2018-01-23T06:43:59.278Z,1015.4
2018-01-23T06:45:00.678Z,1015.4
2018-01-23T06:46:02.161Z,1015.4
2018-01-23T06:47:03.574Z,1015.4
2018-01-23T06:48:05.045Z,1015.4
2018-01-23T06:49:06.440Z,1015.4
2018-01-23T06:50:07.923Z,1015.4
2018-01-23T06:51:09.320Z,1015.4
2018-01-23T06:52:10.723Z,1015.4
2018-01-23T06:53:12.242Z,1015.4
2018-01-23T06:54:13.646Z,1015.4
2018-01-23T06:55:15.046Z,1015.4
2018-01-23T06:56:16.567Z,1015.5
2018-01-23T06:57:17.966Z,1015.5
2018-01-23T06:58:19.367Z,1015.5
2018-01-23T06:59:20.897Z,1015.5
2018-01-23T07:00:22.300Z,1015.5
2018-01-23T07:01:23.701Z,1015.5
2018-01-23T07:02:25.209Z,1015.5
2018-01-23T07:03:26.611Z,1015.4
2018-01-23T07:04:28.020Z,1015.5
2018-01-23T07:05:29.531Z,1015.5
2018-01-23T07:06:30.943Z,1015.5
2018-01-23T07:07:32.344Z,1015.5
2018-01-23T07:08:33.851Z,1015.5
2018-01-23T07:09:35.248Z,1015.5
2018-01-23T07:10:36.650Z,1015.6
2018-01-23T07:11:38.054Z,1015.5
2018-01-23T07:12:39.490Z,1015.5
2018-01-23T07:13:40.894Z,1015.5
2018-01-23T07:14:42.304Z,1015.5
2018-01-23T07:15:43.704Z,1015.5
2018-01-23T07:16:45.106Z,1015.5
2018-01-23T07:17:46.616Z,1015.6
2018-01-23T07:18:48.018Z,1015.6
2018-01-23T07:19:49.421Z,1015.6
2018-01-23T07:20:50.934Z,1015.6
2018-01-23T07:21:52.337Z,1015.6
2018-01-23T07:22:53.815Z,1015.6
2018-01-23T07:23:55.217Z,1015.5
2018-01-23T07:24:56.698Z,1015.6
2018-01-23T07:25:58.100Z,1015.6
2018-01-23T07:26:59.503Z,1015.6
2018-01-23T07:28:01.018Z,1015.6
2018-01-23T07:29:02.420Z,1015.6
2018-01-23T07:30:03.825Z,1015.7
2018-01-23T07:31:05.344Z,1015.6
2018-01-23T07:32:06.739Z,1015.6
2018-01-23T07:33:08.142Z,1015.7
2018-01-23T07:34:09.664Z,1015.7
2018-01-23T07:35:11.066Z,1015.6
2018-01-23T07:36:12.471Z,1015.7
2018-01-23T07:37:13.985Z,1015.7
2018-01-23T07:38:15.387Z,1015.7
2018-01-23T07:39:16.866Z,1015.7
2018-01-23T07:40:18.663Z,1015.7
2018-01-23T07:41:20.159Z,1015.7
2018-01-23T07:42:21.622Z,1015.7
2018-01-23T07:43:23.042Z,1015.8
2018-01-23T07:44:24.448Z,1015.7
2018-01-23T07:45:25.920Z,1015.8
2018-01-23T07:46:27.323Z,1015.8
2018-01-23T07:47:28.803Z,1015.8
2018-01-23T07:48:30.204Z,1015.8
2018-01-23T07:49:31.684Z,1015.9
2018-01-23T07:50:33.091Z,1015.9
2018-01-23T07:51:34.953Z,1015.9
2018-01-23T07:52:36.354Z,1015.8
2018-01-23T07:53:37.756Z,1015.8
2018-01-23T07:54:39.294Z,1015.9
2018-01-23T07:55:40.699Z,1015.9
2018-01-23T07:56:42.102Z,1015.9
2018-01-23T07:57:43.616Z,1016.0
2018-01-23T07:58:45.023Z,1016.0
2018-01-23T07:59:46.428Z,1016.0
2018-01-23T08:00:47.946Z,1016.0
2018-01-23T08:01:49.345Z,1015.9
2018-01-23T08:02:50.748Z,1015.9
2018-01-23T08:03:52.259Z,1015.9
2018-01-23T08:04:53.665Z,1016.0
2018-01-23T08:05:55.140Z,1015.9
2018-01-23T08:06:56.541Z,1015.9
2018-01-23T08:07:58.021Z,1015.9
2018-01-23T08:08:59.424Z,1015.9
2018-01-23T08:10:00.902Z,1015.9
2018-01-23T08:11:02.305Z,1016.0
2018-01-23T08:12:03.781Z,1016.0
2018-01-23T08:13:05.184Z,1015.9
2018-01-23T08:14:06.669Z,1016.0
2018-01-23T08:15:08.066Z,1016.0
2018-01-23T08:16:09.549Z,1016.0
2018-01-23T08:17:10.978Z,1016.0
2018-01-23T08:18:12.427Z,1016.0
2018-01-23T08:19:13.831Z,1015.9
2018-01-23T08:20:15.309Z,1016.0
2018-01-23T08:21:16.710Z,1016.1
2018-01-23T08:22:18.189Z,1016.1
2018-01-23T08:23:19.592Z,1016.0
2018-01-23T08:24:21.092Z,1016.0
2018-01-23T08:25:22.493Z,1016.0
2018-01-23T08:26:23.951Z,1016.0
2018-01-23T08:27:25.355Z,1016.0
2018-01-23T08:28:26.763Z,1016.0
2018-01-23T08:29:28.275Z,1016.1
2018-01-23T08:30:29.678Z,1016.0
2018-01-23T08:31:31.088Z,1016.0
2018-01-23T08:32:32.603Z,1016.0
2018-01-23T08:33:34.002Z,1016.1
2018-01-23T08:34:35.409Z,1016.1
2018-01-23T08:35:36.917Z,1016.1
2018-01-23T08:36:38.319Z,1016.2
2018-01-23T08:37:39.732Z,1016.1
2018-01-23T08:38:41.240Z,1016.1
2018-01-23T08:39:42.642Z,1016.1
2018-01-23T08:40:44.048Z,1016.1
2018-01-23T08:41:45.563Z,1016.0
2018-01-23T08:42:46.965Z,1016.1
2018-01-23T08:43:48.365Z,1016.1
2018-01-23T08:44:49.885Z,1016.0
2018-01-23T08:45:51.289Z,1016.1
2018-01-23T08:46:52.693Z,1016.1
2018-01-23T08:47:54.203Z,1016.0
2018-01-23T08:48:55.608Z,1016.0
2018-01-23T08:49:57.010Z,1016.1
2018-01-23T08:50:58.524Z,1016.1
2018-01-23T08:51:59.929Z,1016.1
2018-01-23T08:53:01.329Z,1016.1
2018-01-23T08:54:02.845Z,1016.1
2018-01-23T08:55:04.252Z,1016.1
2018-01-23T08:56:05.727Z,1016.1
2018-01-23T08:57:07.129Z,1016.1
2018-01-23T08:58:08.533Z,1016.1
2018-01-23T08:59:10.050Z,1016.0
2018-01-23T09:00:11.454Z,1016.1
2018-01-23T09:01:12.858Z,1016.1
2018-01-23T09:02:14.371Z,1016.1
2018-01-23T09:03:15.776Z,1016.2
2018-01-23T09:04:17.252Z,1016.2
2018-01-23T09:05:18.654Z,1016.2
2018-01-23T09:06:20.133Z,1016.2
2018-01-23T09:07:21.538Z,1016.2
2018-01-23T09:08:22.942Z,1016.2
2018-01-23T09:09:24.474Z,1016.3
2018-01-23T09:10:25.879Z,1016.3
2018-01-23T09:11:27.281Z,1016.3
2018-01-23T09:12:28.776Z,1016.3
2018-01-23T09:13:30.180Z,1016.3
2018-01-23T09:14:31.586Z,1016.3
2018-01-23T09:15:33.098Z,1016.3
2018-01-23T09:16:34.502Z,1016.3
2018-01-23T09:17:35.910Z,1016.4
2018-01-23T09:18:37.420Z,1016.4
2018-01-23T09:19:38.822Z,1016.3
2018-01-23T09:20:40.303Z,1016.4
2018-01-23T09:21:41.705Z,1016.4
2018-01-23T09:22:43.181Z,1016.4
2018-01-23T09:23:44.583Z,1016.4
2018-01-23T09:24:46.063Z,1016.4
2018-01-23T09:25:47.464Z,1016.4
2018-01-23T09:26:48.944Z,1016.4
2018-01-23T09:27:50.351Z,1016.5
2018-01-23T09:28:51.825Z,1016.4
2018-01-23T09:29:53.231Z,1016.5
2018-01-23T09:30:54.706Z,1016.4
2018-01-23T09:31:56.111Z,1016.4
2018-01-23T09:32:57.588Z,1016.4
2018-01-23T09:33:58.990Z,1016.5
2018-01-23T09:35:00.469Z,1016.5
2018-01-23T09:36:01.873Z,1016.5
2018-01-23T09:37:03.290Z,1016.4
2018-01-23T09:38:04.696Z,1016.4
2018-01-23T09:39:06.104Z,1016.4
2018-01-23T09:40:07.528Z,1016.4
2018-01-23T09:41:09.055Z,1016.4
2018-01-23T09:42:10.470Z,1016.4
2018-01-23T09:43:12.053Z,1016.4
2018-01-23T09:44:13.458Z,1016.4
2018-01-23T09:45:14.864Z,1016.3
2018-01-23T09:46:16.369Z,1016.4
2018-01-23T09:47:17.785Z,1016.4
2018-01-23T09:48:19.178Z,1016.4
2018-01-23T09:49:20.694Z,1016.4
2018-01-23T09:50:22.100Z,1016.4
2018-01-23T09:51:23.778Z,1016.4
2018-01-23T09:52:25.185Z,1016.5
2018-01-23T09:53:26.864Z,1016.5
2018-01-23T09:54:28.267Z,1016.4
2018-01-23T09:55:29.689Z,1016.4
2018-01-23T09:56:31.094Z,1016.4
2018-01-23T09:57:32.582Z,1016.5
2018-01-23T09:58:33.990Z,1016.4
2018-01-23T09:59:35.450Z,1016.4
2018-01-23T10:00:36.857Z,1016.4
2018-01-23T10:01:38.336Z,1016.4
2018-01-23T10:02:39.740Z,1016.4
2018-01-23T10:03:41.213Z,1016.4
2018-01-23T10:04:42.618Z,1016.4
2018-01-23T10:05:44.100Z,1016.4
2018-01-23T10:06:45.503Z,1016.4
2018-01-23T10:07:46.976Z,1016.4
2018-01-23T10:08:48.377Z,1016.5
2018-01-23T10:09:49.787Z,1016.4
2018-01-23T10:10:51.296Z,1016.5
2018-01-23T10:11:52.703Z,1016.4
2018-01-23T10:12:54.110Z,1016.4
2018-01-23T10:13:55.617Z,1016.4
2018-01-23T10:14:57.024Z,1016.4
2018-01-23T10:15:58.429Z,1016.4
2018-01-23T10:16:59.939Z,1016.5
2018-01-23T10:18:01.344Z,1016.4
2018-01-23T10:19:02.749Z,1016.4
2018-01-23T10:20:04.261Z,1016.4
2018-01-23T10:21:05.670Z,1016.4
2018-01-23T10:22:07.142Z,1016.4
2018-01-23T10:23:08.546Z,1016.4
2018-01-23T10:24:10.401Z,1016.4
2018-01-23T10:25:11.807Z,1016.4
2018-01-23T10:26:13.315Z,1016.4
2018-01-23T10:27:14.724Z,1016.5
2018-01-23T10:28:16.198Z,1016.5
2018-01-23T10:29:17.605Z,1016.4
2018-01-23T10:30:19.013Z,1016.5
2018-01-23T10:31:20.517Z,1016.5
2018-01-23T10:32:21.925Z,1016.4
2018-01-23T10:33:23.328Z,1016.4
2018-01-23T10:34:24.843Z,1016.4
2018-01-23T10:35:26.248Z,1016.4
2018-01-23T10:36:27.722Z,1016.4
2018-01-23T10:37:29.127Z,1016.4
2018-01-23T10:38:30.537Z,1016.4
2018-01-23T10:39:32.044Z,1016.4
2018-01-23T10:40:33.451Z,1016.4
2018-01-23T10:41:34.861Z,1016.4
2018-01-23T10:42:36.365Z,1016.4
2018-01-23T10:43:37.775Z,1016.4
2018-01-23T10:44:39.183Z,1016.3
2018-01-23T10:45:40.682Z,1016.3
2018-01-23T10:46:42.092Z,1016.3
2018-01-23T10:47:43.546Z,1016.3
2018-01-23T10:48:45.009Z,1016.3
2018-01-23T10:49:46.418Z,1016.2
2018-01-23T10:50:47.827Z,1016.2
2018-01-23T10:51:49.330Z,1016.1
2018-01-23T10:52:50.739Z,1016.2
2018-01-23T10:53:52.432Z,1016.2
2018-01-23T10:54:53.859Z,1016.2
2018-01-23T10:55:55.264Z,1016.2
2018-01-23T10:56:56.741Z,1016.3
2018-01-23T10:57:58.150Z,1016.3
2018-01-23T10:58:59.622Z,1016.3
2018-01-23T11:00:01.028Z,1016.2
2018-01-23T11:01:02.500Z,1016.3
2018-01-23T11:02:03.909Z,1016.2
2018-01-23T11:03:05.381Z,1016.2
2018-01-23T11:04:06.791Z,1016.3
2018-01-23T11:05:08.261Z,1016.3
2018-01-23T11:06:09.668Z,1016.3
2018-01-23T11:07:11.142Z,1016.3
2018-01-23T11:08:12.552Z,1016.3
2018-01-23T11:09:14.031Z,1016.4
2018-01-23T11:10:15.439Z,1016.3
2018-01-23T11:11:16.905Z,1016.3
2018-01-23T11:12:18.316Z,1016.3
2018-01-23T11:13:19.817Z,1016.3
2018-01-23T11:14:21.192Z,1016.3
2018-01-23T11:15:22.601Z,1016.1
2018-01-23T11:16:24.110Z,1016.3
2018-01-23T11:17:25.521Z,1016.3
2018-01-23T11:18:26.928Z,1016.3
2018-01-23T11:19:28.458Z,1016.3
2018-01-23T11:20:29.870Z,1016.3
2018-01-23T11:21:31.315Z,1016.3
2018-01-23T11:22:32.721Z,1016.2
2018-01-23T11:23:34.194Z,1016.1
2018-01-23T11:24:35.603Z,1016.2
2018-01-23T11:25:37.075Z,1016.2
2018-01-23T11:26:38.486Z,1016.2
2018-01-23T11:27:39.955Z,1016.3
2018-01-23T11:28:41.360Z,1016.2
2018-01-23T11:29:42.768Z,1016.1
2018-01-23T11:30:44.275Z,1016.2
2018-01-23T11:31:45.684Z,1016.1
2018-01-23T11:32:47.096Z,1016.0
2018-01-23T11:33:48.600Z,1016.1
2018-01-23T11:34:50.008Z,1016.1
2018-01-23T11:35:51.409Z,1016.0
2018-01-23T11:36:52.920Z,1016.0
2018-01-23T11:37:54.325Z,1016.1
2018-01-23T11:38:55.799Z,1016.1
2018-01-23T11:39:57.207Z,1016.1
2018-01-23T11:40:58.683Z,1016.0
2018-01-23T11:42:00.087Z,1016.0
2018-01-23T11:43:01.560Z,1016.0
2018-01-23T11:44:02.967Z,1016.0
2018-01-23T11:45:04.381Z,1016.0
2018-01-23T11:46:05.882Z,1015.9
2018-01-23T11:47:07.290Z,1016.0
2018-01-23T11:48:08.702Z,1016.0
2018-01-23T11:49:10.203Z,1015.9
2018-01-23T11:50:11.610Z,1015.9
2018-01-23T11:51:13.017Z,1015.9
2018-01-23T11:52:14.526Z,1015.9
2018-01-23T11:53:15.934Z,1015.9
2018-01-23T11:54:17.407Z,1016.0
2018-01-23T11:55:18.820Z,1016.0
2018-01-23T11:56:20.288Z,1015.9
2018-01-23T11:57:21.694Z,1016.0
2018-01-23T11:58:23.169Z,1015.9
2018-01-23T11:59:24.577Z,1016.0
2018-01-23T12:00:26.059Z,1016.0
2018-01-23T12:01:27.466Z,1015.9
2018-01-23T12:02:28.931Z,1015.8
2018-01-23T12:03:30.338Z,1015.9
2018-01-23T12:04:31.815Z,1015.9
2018-01-23T12:05:33.224Z,1015.9
2018-01-23T12:06:34.900Z,1015.9
2018-01-23T12:07:36.309Z,1015.9
2018-01-23T12:08:37.780Z,1015.8
2018-01-23T12:09:39.196Z,1015.8
2018-01-23T12:10:40.599Z,1015.9
2018-01-23T12:11:42.103Z,1015.8
2018-01-23T12:12:43.509Z,1015.8
2018-01-23T12:13:44.919Z,1015.8
2018-01-23T12:14:46.806Z,1015.7
2018-01-23T12:15:48.216Z,1015.7
2018-01-23T12:16:49.622Z,1015.7
2018-01-23T12:17:51.154Z,1015.8
2018-01-23T12:18:52.560Z,1015.7
2018-01-23T12:19:53.967Z,1015.7
2018-01-23T12:20:55.480Z,1015.7
2018-01-23T12:21:56.881Z,1015.7
2018-01-23T12:22:58.402Z,1015.7
2018-01-23T12:23:59.767Z,1015.6
2018-01-23T12:25:01.238Z,1015.6
2018-01-23T12:26:02.643Z,1015.6
2018-01-23T12:27:04.052Z,1015.6
2018-01-23T12:28:05.559Z,1015.6
2018-01-23T12:29:06.968Z,1015.6
2018-01-23T12:30:08.375Z,1015.7
2018-01-23T12:31:09.901Z,1015.5
2018-01-23T12:32:11.288Z,1015.5
2018-01-23T12:33:12.762Z,1015.6
2018-01-23T12:34:14.169Z,1015.5
2018-01-23T12:35:15.665Z,1015.6
2018-01-23T12:36:17.078Z,1015.5
2018-01-23T12:37:18.526Z,1015.5
2018-01-23T12:38:19.935Z,1015.5
2018-01-23T12:39:21.406Z,1015.6
2018-01-23T12:40:22.811Z,1015.5
2018-01-23T12:41:24.286Z,1015.5
2018-01-23T12:42:25.691Z,1015.4
2018-01-23T12:43:27.169Z,1015.5
2018-01-23T12:44:28.576Z,1015.5
2018-01-23T12:45:30.049Z,1015.5
2018-01-23T12:46:31.456Z,1015.4